createdAt,value
2017-11-01T00:00:45.415Z,10.7
2017-11-01T00:01:46.808Z,10.7
2017-11-01T00:02:48.202Z,10.7
2017-11-01T00:03:49.595Z,10.7
2017-11-01T00:04:50.992Z,10.6
2017-11-01T00:05:52.387Z,10.7
2017-11-01T00:06:53.801Z,10.6
2017-11-01T00:07:55.178Z,10.6
2017-11-01T00:08:56.575Z,10.6
2017-11-01T00:09:57.964Z,10.6
2017-11-01T00:10:59.360Z,10.6
2017-11-01T00:12:00.753Z,10.7
2017-11-01T00:13:02.149Z,10.6
2017-11-01T00:14:03.544Z,10.7
2017-11-01T00:15:04.941Z,10.6
2017-11-01T00:16:06.336Z,10.7
2017-11-01T00:17:07.728Z,10.7
2017-11-01T00:18:09.123Z,10.6
2017-11-01T00:19:10.519Z,10.7
2017-11-01T00:20:11.912Z,10.6
2017-11-01T00:21:13.308Z,10.6
2017-11-01T00:22:14.712Z,10.8
2017-11-01T00:23:16.105Z,10.7
2017-11-01T00:24:17.500Z,10.6
2017-11-01T00:25:18.893Z,10.7
2017-11-01T00:26:20.295Z,10.8
2017-11-01T00:27:21.691Z,10.7
2017-11-01T00:28:23.087Z,10.7
2017-11-01T00:29:24.484Z,10.6
2017-11-01T00:30:25.877Z,10.6
2017-11-01T00:31:27.273Z,10.7
2017-11-01T00:32:28.673Z,10.7
2017-11-01T00:33:30.068Z,10.7
2017-11-01T00:34:31.466Z,10.7
2017-11-01T00:35:32.862Z,10.7
2017-11-01T00:36:34.257Z,10.8
2017-11-01T00:37:35.653Z,10.7
2017-11-01T00:38:37.045Z,10.7
2017-11-01T00:39:38.440Z,10.7
2017-11-01T00:40:39.836Z,10.7
2017-11-01T00:41:41.234Z,10.7
2017-11-01T00:42:42.630Z,10.7
2017-11-01T00:43:44.028Z,10.7
2017-11-01T00:44:45.425Z,10.8
2017-11-01T00:45:46.818Z,10.7
2017-11-01T00:46:48.214Z,10.8
2017-11-01T00:47:49.610Z,10.8
2017-11-01T00:48:51.015Z,10.8
2017-11-01T00:49:52.411Z,10.8
2017-11-01T00:50:53.807Z,10.8
2017-11-01T00:51:55.199Z,10.8
2017-11-01T00:52:56.594Z,10.8
2017-11-01T00:53:57.990Z,10.8
2017-11-01T00:54:59.386Z,10.8
2017-11-01T00:56:00.784Z,10.8
2017-11-01T00:57:02.189Z,10.8
2017-11-01T00:58:03.581Z,10.8
2017-11-01T00:59:04.978Z,10.8
2017-11-01T01:00:06.370Z,10.8
2017-11-01T01:01:07.766Z,10.8
2017-11-01T01:02:09.159Z,10.8
2017-11-01T01:03:10.554Z,10.8
2017-11-01T01:04:11.949Z,10.8
2017-11-01T01:05:13.344Z,10.8
2017-11-01T01:06:14.739Z,10.8
2017-11-01T01:07:16.133Z,10.9
2017-11-01T01:08:17.527Z,10.9
2017-11-01T01:09:18.923Z,10.8
2017-11-01T01:10:20.316Z,10.8
2017-11-01T01:11:21.714Z,10.8
2017-11-01T01:12:23.111Z,10.8
2017-11-01T01:13:24.503Z,10.9
2017-11-01T01:14:25.897Z,10.9
2017-11-01T01:15:27.291Z,10.9
2017-11-01T01:16:28.688Z,10.9
2017-11-01T01:17:30.086Z,10.9
2017-11-01T01:18:31.481Z,10.8
2017-11-01T01:19:32.875Z,10.9
2017-11-01T01:20:34.270Z,10.8
2017-11-01T01:21:35.666Z,10.8
2017-11-01T01:22:37.069Z,10.8
2017-11-01T01:23:38.459Z,10.8
2017-11-01T01:24:39.855Z,10.9
2017-11-01T01:25:41.253Z,10.8
2017-11-01T01:26:42.649Z,10.8
2017-11-01T01:27:44.045Z,10.8
2017-11-01T01:28:45.440Z,10.9
2017-11-01T01:29:46.831Z,10.8
2017-11-01T01:30:48.227Z,10.8
2017-11-01T01:31:49.622Z,10.8
2017-11-01T01:32:51.066Z,10.9
2017-11-01T01:33:52.463Z,10.8
2017-11-01T01:34:53.965Z,10.9
2017-11-01T01:35:55.377Z,10.9
2017-11-01T01:36:56.776Z,10.9
2017-11-01T01:37:58.167Z,10.9
2017-11-01T01:38:59.568Z,10.9
2017-11-01T01:40:00.963Z,10.9
2017-11-01T01:41:02.364Z,10.9
2017-11-01T01:42:03.753Z,10.9
2017-11-01T01:43:05.153Z,10.9
2017-11-01T01:44:06.546Z,10.9
2017-11-01T01:45:07.945Z,10.9
2017-11-01T01:46:09.341Z,10.9
2017-11-01T01:47:10.737Z,10.9
2017-11-01T01:48:12.133Z,10.9
2017-11-01T01:49:13.525Z,10.9
2017-11-01T01:50:14.928Z,10.9
2017-11-01T01:51:16.325Z,10.9
2017-11-01T01:52:17.717Z,10.9
2017-11-01T01:53:19.114Z,10.9
2017-11-01T01:54:20.510Z,10.9
2017-11-01T01:55:21.907Z,10.9
2017-11-01T01:56:23.302Z,10.9
2017-11-01T01:57:24.694Z,10.9
2017-11-01T01:58:26.086Z,10.9
2017-11-01T01:59:27.483Z,10.9
2017-11-01T02:00:28.879Z,10.9
2017-11-01T02:01:30.277Z,11.0
2017-11-01T02:02:31.673Z,11.0
2017-11-01T02:03:33.066Z,10.9
2017-11-01T02:04:34.459Z,11.0
2017-11-01T02:05:35.858Z,11.0
2017-11-01T02:06:37.258Z,11.0
2017-11-01T02:07:38.651Z,11.0
2017-11-01T02:08:40.048Z,10.9
2017-11-01T02:09:41.446Z,10.9
2017-11-01T02:10:42.852Z,11.0
2017-11-01T02:11:44.236Z,11.0
2017-11-01T02:12:45.638Z,10.9
2017-11-01T02:13:47.028Z,11.0
2017-11-01T02:14:48.420Z,10.9
2017-11-01T02:15:49.815Z,11.0
2017-11-01T02:16:51.209Z,11.1
2017-11-01T02:17:52.604Z,11.1
2017-11-01T02:18:54.000Z,11.1
2017-11-01T02:19:55.393Z,11.1
2017-11-01T02:20:56.786Z,11.0
2017-11-01T02:21:58.188Z,11.0
2017-11-01T02:22:59.584Z,11.0
2017-11-01T02:24:00.979Z,11.1
2017-11-01T02:25:02.377Z,11.0
2017-11-01T02:26:03.768Z,11.0
2017-11-01T02:27:05.164Z,11.0
2017-11-01T02:28:06.560Z,11.0
2017-11-01T02:29:07.954Z,11.1
2017-11-01T02:30:09.354Z,11.1
2017-11-01T02:31:10.750Z,11.0
2017-11-01T02:32:12.142Z,11.0
2017-11-01T02:33:13.539Z,11.0
2017-11-01T02:34:14.937Z,11.0
2017-11-01T02:35:16.329Z,11.0
2017-11-01T02:36:17.722Z,11.1
2017-11-01T02:37:19.123Z,11.0
2017-11-01T02:38:20.518Z,11.0
2017-11-01T02:39:21.916Z,10.9
2017-11-01T02:40:23.312Z,11.0
2017-11-01T02:41:24.700Z,11.0
2017-11-01T02:42:26.106Z,11.0
2017-11-01T02:43:27.500Z,10.9
2017-11-01T02:44:28.897Z,11.0
2017-11-01T02:45:30.294Z,10.9
2017-11-01T02:46:31.688Z,11.0
2017-11-01T02:47:33.084Z,11.0
2017-11-01T02:48:34.474Z,11.0
2017-11-01T02:49:35.872Z,10.9
2017-11-01T02:50:37.266Z,11.0
2017-11-01T02:51:38.662Z,11.0
2017-11-01T02:52:40.063Z,10.9
2017-11-01T02:53:41.449Z,10.9
2017-11-01T02:54:42.845Z,11.0
2017-11-01T02:55:44.245Z,11.0
2017-11-01T02:56:45.634Z,11.0
2017-11-01T02:57:47.029Z,11.0
2017-11-01T02:58:48.427Z,10.9
2017-11-01T02:59:49.823Z,11.0
2017-11-01T03:00:51.214Z,11.0
2017-11-01T03:01:52.608Z,11.0
2017-11-01T03:02:54.008Z,11.0
2017-11-01T03:03:55.400Z,11.1
2017-11-01T03:04:56.798Z,10.9
2017-11-01T03:05:58.192Z,10.9
2017-11-01T03:06:59.598Z,11.0
2017-11-01T03:08:01.009Z,11.0
2017-11-01T03:09:02.404Z,10.9
2017-11-01T03:10:03.801Z,11.0
2017-11-01T03:11:05.195Z,11.0
2017-11-01T03:12:06.592Z,10.9
2017-11-01T03:13:07.989Z,11.0
2017-11-01T03:14:09.389Z,10.9
2017-11-01T03:15:10.780Z,11.0
2017-11-01T03:16:12.212Z,10.9
2017-11-01T03:17:13.605Z,10.9
2017-11-01T03:18:15.005Z,11.0
2017-11-01T03:19:16.403Z,11.0
2017-11-01T03:20:17.801Z,10.9
2017-11-01T03:21:19.198Z,10.9
2017-11-01T03:22:20.589Z,11.0
2017-11-01T03:23:21.983Z,10.9
2017-11-01T03:24:23.377Z,10.9
2017-11-01T03:25:24.773Z,11.0
2017-11-01T03:26:26.169Z,11.0
2017-11-01T03:27:27.565Z,11.0
2017-11-01T03:28:28.962Z,11.0
2017-11-01T03:29:30.356Z,10.9
2017-11-01T03:30:31.751Z,10.9
2017-11-01T03:31:33.144Z,11.0
2017-11-01T03:32:34.538Z,11.0
2017-11-01T03:33:35.935Z,11.0
2017-11-01T03:34:37.333Z,11.0
2017-11-01T03:35:38.732Z,11.1
2017-11-01T03:36:40.122Z,11.0
2017-11-01T03:37:41.517Z,11.0
2017-11-01T03:38:42.914Z,11.0
2017-11-01T03:39:44.311Z,11.0
2017-11-01T03:40:45.704Z,10.9
2017-11-01T03:41:47.099Z,10.9
2017-11-01T03:42:48.499Z,11.0
2017-11-01T03:43:49.889Z,11.0
2017-11-01T03:44:51.284Z,11.0
2017-11-01T03:45:52.681Z,11.0
2017-11-01T03:46:54.077Z,11.0
2017-11-01T03:47:55.472Z,11.0
2017-11-01T03:48:56.867Z,11.0
2017-11-01T03:49:58.265Z,11.0
2017-11-01T03:50:59.660Z,11.0
2017-11-01T03:52:01.052Z,11.0
2017-11-01T03:53:02.447Z,10.9
2017-11-01T03:54:03.845Z,11.1
2017-11-01T03:55:05.240Z,11.0
2017-11-01T03:56:06.643Z,10.9
2017-11-01T03:57:08.048Z,11.0
2017-11-01T03:58:09.439Z,11.0
2017-11-01T03:59:10.834Z,10.9
2017-11-01T04:00:12.231Z,11.0
2017-11-01T04:01:13.626Z,10.9
2017-11-01T04:02:15.026Z,11.0
2017-11-01T04:03:16.423Z,10.9
2017-11-01T04:04:17.816Z,10.9
2017-11-01T04:05:19.209Z,11.0
2017-11-01T04:06:20.604Z,10.9
2017-11-01T04:07:21.999Z,11.0
2017-11-01T04:08:23.394Z,10.9
2017-11-01T04:09:24.791Z,10.9
2017-11-01T04:10:26.189Z,10.9
2017-11-01T04:11:27.587Z,10.9
2017-11-01T04:12:28.982Z,10.9
2017-11-01T04:13:30.385Z,11.0
2017-11-01T04:14:31.778Z,10.9
2017-11-01T04:15:33.173Z,10.9
2017-11-01T04:16:34.572Z,10.9
2017-11-01T04:17:35.969Z,10.9
2017-11-01T04:18:37.364Z,10.9
2017-11-01T04:19:38.759Z,10.9
2017-11-01T04:20:40.154Z,10.9
2017-11-01T04:21:41.547Z,11.0
2017-11-01T04:22:42.941Z,10.9
2017-11-01T04:23:44.339Z,10.9
2017-11-01T04:24:45.739Z,10.9
2017-11-01T04:25:47.134Z,10.9
2017-11-01T04:26:48.527Z,10.9
2017-11-01T04:27:49.924Z,10.9
2017-11-01T04:28:51.324Z,10.9
2017-11-01T04:29:52.722Z,11.0
2017-11-01T04:30:54.121Z,10.9
2017-11-01T04:31:55.515Z,10.9
2017-11-01T04:32:56.910Z,10.9
2017-11-01T04:33:58.301Z,10.9
2017-11-01T04:34:59.698Z,10.9
2017-11-01T04:36:01.099Z,10.8
2017-11-01T04:37:02.493Z,10.8
2017-11-01T04:38:03.888Z,10.8
2017-11-01T04:39:05.286Z,10.8
2017-11-01T04:40:06.683Z,10.9
2017-11-01T04:41:08.077Z,10.8
2017-11-01T04:42:09.472Z,10.8
2017-11-01T04:43:10.868Z,10.8
2017-11-01T04:44:12.265Z,10.9
2017-11-01T04:45:13.661Z,10.8
2017-11-01T04:46:15.057Z,10.8
2017-11-01T04:47:16.457Z,10.8
2017-11-01T04:48:17.853Z,10.7
2017-11-01T04:49:19.246Z,10.8
2017-11-01T04:50:20.640Z,10.8
2017-11-01T04:51:22.035Z,10.8
2017-11-01T04:52:23.429Z,10.8
2017-11-01T04:53:24.824Z,10.8
2017-11-01T04:54:26.222Z,10.8
2017-11-01T04:55:27.616Z,10.8
2017-11-01T04:56:29.009Z,10.8
2017-11-01T04:57:30.405Z,10.8
2017-11-01T04:58:31.801Z,10.8
2017-11-01T04:59:33.237Z,10.8
2017-11-01T05:00:34.633Z,10.8
2017-11-01T05:01:36.035Z,10.7
2017-11-01T05:02:37.428Z,10.8
2017-11-01T05:03:38.826Z,10.8
2017-11-01T05:04:40.215Z,10.7
2017-11-01T05:05:41.611Z,10.7
2017-11-01T05:06:43.007Z,10.7
2017-11-01T05:07:44.405Z,10.7
2017-11-01T05:08:45.800Z,10.8
2017-11-01T05:09:47.196Z,10.8
2017-11-01T05:10:48.591Z,10.7
2017-11-01T05:11:49.986Z,10.7
2017-11-01T05:12:51.378Z,10.7
2017-11-01T05:13:52.779Z,10.8
2017-11-01T05:14:54.173Z,10.7
2017-11-01T05:15:55.578Z,10.8
2017-11-01T05:16:56.965Z,10.8
2017-11-01T05:17:58.368Z,10.7
2017-11-01T05:18:59.753Z,10.7
2017-11-01T05:20:01.148Z,10.7
2017-11-01T05:21:02.541Z,10.6
2017-11-01T05:22:03.939Z,10.7
2017-11-01T05:23:05.334Z,10.7
2017-11-01T05:24:06.727Z,10.6
2017-11-01T05:25:08.125Z,10.6
2017-11-01T05:26:09.518Z,10.6
2017-11-01T05:27:10.915Z,10.5
2017-11-01T05:28:12.310Z,10.5
2017-11-01T05:29:13.709Z,10.5
2017-11-01T05:30:15.112Z,10.5
2017-11-01T05:31:16.501Z,10.5
2017-11-01T05:32:17.897Z,10.5
2017-11-01T05:33:19.291Z,10.5
2017-11-01T05:34:20.685Z,10.5
2017-11-01T05:35:22.082Z,10.4
2017-11-01T05:36:23.476Z,10.4
2017-11-01T05:37:24.894Z,10.5
2017-11-01T05:38:26.285Z,10.4
2017-11-01T05:39:27.684Z,10.5
2017-11-01T05:40:29.079Z,10.4
2017-11-01T05:41:30.472Z,10.4
2017-11-01T05:42:31.867Z,10.4
2017-11-01T05:43:33.270Z,10.4
2017-11-01T05:44:34.657Z,10.4
2017-11-01T05:45:36.051Z,10.4
2017-11-01T05:46:37.446Z,10.4
2017-11-01T05:47:38.844Z,10.4
2017-11-01T05:48:40.239Z,10.3
2017-11-01T05:49:41.634Z,10.4
2017-11-01T05:50:43.031Z,10.4
2017-11-01T05:51:44.426Z,10.4
2017-11-01T05:52:45.821Z,10.3
2017-11-01T05:53:47.212Z,10.3
2017-11-01T05:54:48.605Z,10.4
2017-11-01T05:55:50.002Z,10.4
2017-11-01T05:56:51.398Z,10.4
2017-11-01T05:57:52.794Z,10.4
2017-11-01T05:58:54.192Z,10.4
2017-11-01T05:59:55.587Z,10.3
2017-11-01T06:00:56.978Z,10.3
2017-11-01T06:01:58.373Z,10.3
2017-11-01T06:02:59.770Z,10.3
2017-11-01T06:04:01.167Z,10.2
2017-11-01T06:05:02.563Z,10.3
2017-11-01T06:06:03.957Z,10.3
2017-11-01T06:07:05.351Z,10.4
2017-11-01T06:08:06.746Z,10.2
2017-11-01T06:09:08.142Z,10.3
2017-11-01T06:10:09.535Z,10.3
2017-11-01T06:11:10.929Z,10.3
2017-11-01T06:12:12.325Z,10.3
2017-11-01T06:13:13.720Z,10.3
2017-11-01T06:14:15.113Z,10.3
2017-11-01T06:15:16.506Z,10.3
2017-11-01T06:16:17.902Z,10.2
2017-11-01T06:17:19.298Z,10.3
2017-11-01T06:18:20.696Z,10.3
2017-11-01T06:19:22.093Z,10.2
2017-11-01T06:20:23.490Z,10.3
2017-11-01T06:21:24.887Z,10.3
2017-11-01T06:22:26.278Z,10.3
2017-11-01T06:23:27.675Z,10.3
2017-11-01T06:24:29.074Z,10.4
2017-11-01T06:25:30.470Z,10.3
2017-11-01T06:26:31.866Z,10.3
2017-11-01T06:27:33.262Z,10.3
2017-11-01T06:28:34.657Z,10.2
2017-11-01T06:29:36.058Z,10.3
2017-11-01T06:30:37.449Z,10.2
2017-11-01T06:31:38.848Z,10.2
2017-11-01T06:32:40.245Z,10.2
2017-11-01T06:33:41.646Z,10.3
2017-11-01T06:34:43.039Z,10.3
2017-11-01T06:35:44.431Z,10.2
2017-11-01T06:36:45.829Z,10.2
2017-11-01T06:37:47.229Z,10.2
2017-11-01T06:38:48.624Z,10.3
2017-11-01T06:39:50.019Z,10.2
2017-11-01T06:40:51.420Z,10.4
2017-11-01T06:41:52.827Z,10.3
2017-11-01T06:42:54.262Z,10.3
2017-11-01T06:43:55.658Z,10.3
2017-11-01T06:44:57.057Z,10.3
2017-11-01T06:45:58.454Z,10.3
2017-11-01T06:46:59.851Z,10.3
2017-11-01T06:48:01.249Z,10.4
2017-11-01T06:49:02.651Z,10.4
2017-11-01T06:50:04.047Z,10.3
2017-11-01T06:51:05.442Z,10.3
2017-11-01T06:52:06.841Z,10.4
2017-11-01T06:53:08.241Z,10.4
2017-11-01T06:54:09.642Z,10.4
2017-11-01T06:55:11.041Z,10.4
2017-11-01T06:56:12.442Z,10.4
2017-11-01T06:57:13.840Z,10.4
2017-11-01T06:58:15.238Z,10.4
2017-11-01T06:59:16.635Z,10.3
2017-11-01T07:00:18.037Z,10.3
2017-11-01T07:01:19.434Z,10.4
2017-11-01T07:02:20.834Z,10.4
2017-11-01T07:03:22.232Z,10.4
2017-11-01T07:04:23.629Z,10.4
2017-11-01T07:05:25.028Z,10.5
2017-11-01T07:06:26.423Z,10.4
2017-11-01T07:07:27.823Z,10.4
2017-11-01T07:08:29.222Z,10.4
2017-11-01T07:09:30.621Z,10.3
2017-11-01T07:10:32.019Z,10.3
2017-11-01T07:11:33.415Z,10.3
2017-11-01T07:12:34.812Z,10.3
2017-11-01T07:13:36.208Z,10.3
2017-11-01T07:14:37.606Z,10.3
2017-11-01T07:15:39.005Z,10.3
2017-11-01T07:16:40.424Z,10.2
2017-11-01T07:17:41.823Z,10.3
2017-11-01T07:18:43.216Z,10.3
2017-11-01T07:19:44.618Z,10.2
2017-11-01T07:20:46.014Z,10.3
2017-11-01T07:21:47.413Z,10.4
2017-11-01T07:22:48.811Z,10.2
2017-11-01T07:23:50.211Z,10.3
2017-11-01T07:24:51.609Z,10.3
2017-11-01T07:25:53.005Z,10.3
2017-11-01T07:26:54.407Z,10.2
2017-11-01T07:27:55.800Z,10.3
2017-11-01T07:28:57.201Z,10.3
2017-11-01T07:29:58.599Z,10.2
2017-11-01T07:31:00.001Z,10.3
2017-11-01T07:32:01.403Z,10.3
2017-11-01T07:33:02.803Z,10.4
2017-11-01T07:34:04.199Z,10.3
2017-11-01T07:35:05.598Z,10.3
2017-11-01T07:36:06.997Z,10.4
2017-11-01T07:37:08.398Z,10.4
2017-11-01T07:38:09.798Z,10.4
2017-11-01T07:39:11.201Z,10.4
2017-11-01T07:40:12.597Z,10.5
2017-11-01T07:41:13.994Z,10.5
2017-11-01T07:42:15.396Z,10.5
2017-11-01T07:43:16.796Z,10.5
2017-11-01T07:44:18.202Z,10.5
2017-11-01T07:45:19.605Z,10.5
2017-11-01T07:46:21.006Z,10.5
2017-11-01T07:47:22.404Z,10.6
2017-11-01T07:48:23.803Z,10.6
2017-11-01T07:49:25.202Z,10.6
2017-11-01T07:50:26.599Z,10.6
2017-11-01T07:51:28.004Z,10.6
2017-11-01T07:52:29.411Z,10.8
2017-11-01T07:53:30.807Z,10.8
2017-11-01T07:54:32.203Z,10.8
2017-11-01T07:55:33.612Z,10.8
2017-11-01T07:56:35.004Z,10.8
2017-11-01T07:57:36.403Z,10.8
2017-11-01T07:58:37.805Z,10.8
2017-11-01T07:59:39.206Z,10.9
2017-11-01T08:00:40.607Z,10.8
2017-11-01T08:01:42.006Z,10.9
2017-11-01T08:02:43.402Z,11.0
2017-11-01T08:03:44.800Z,10.9
2017-11-01T08:04:46.206Z,10.9
2017-11-01T08:05:47.600Z,11.0
2017-11-01T08:06:49.006Z,10.9
2017-11-01T08:07:50.408Z,10.9
2017-11-01T08:08:51.806Z,10.9
2017-11-01T08:09:53.205Z,10.9
2017-11-01T08:10:54.612Z,10.9
2017-11-01T08:11:56.014Z,10.9
2017-11-01T08:12:57.420Z,10.9
2017-11-01T08:13:58.815Z,10.9
2017-11-01T08:15:00.215Z,11.0
2017-11-01T08:16:01.611Z,11.0
2017-11-01T08:17:03.011Z,11.0
2017-11-01T08:18:04.410Z,11.0
2017-11-01T08:19:05.810Z,11.0
2017-11-01T08:20:07.213Z,11.1
2017-11-01T08:21:08.612Z,11.1
2017-11-01T08:22:10.013Z,11.1
2017-11-01T08:23:11.410Z,11.1
2017-11-01T08:24:12.813Z,11.3
2017-11-01T08:25:14.211Z,11.2
2017-11-01T08:26:15.650Z,11.1
2017-11-01T08:27:17.052Z,11.2
2017-11-01T08:28:18.455Z,11.2
2017-11-01T08:29:19.855Z,11.2
2017-11-01T08:30:21.252Z,11.2
2017-11-01T08:31:22.649Z,11.3
2017-11-01T08:32:24.054Z,11.3
2017-11-01T08:33:25.454Z,11.3
2017-11-01T08:34:26.856Z,11.5
2017-11-01T08:35:28.258Z,11.4
2017-11-01T08:36:29.663Z,11.5
2017-11-01T08:37:31.061Z,11.5
2017-11-01T08:38:32.461Z,11.5
2017-11-01T08:39:33.857Z,11.6
2017-11-01T08:40:35.260Z,11.6
2017-11-01T08:41:36.762Z,11.7
2017-11-01T08:42:38.161Z,11.8
2017-11-01T08:43:39.570Z,11.8
2017-11-01T08:44:40.958Z,11.9
2017-11-01T08:45:42.356Z,11.9
2017-11-01T08:46:43.755Z,11.9
2017-11-01T08:47:45.158Z,12.0
2017-11-01T08:48:46.558Z,12.0
2017-11-01T08:49:48.063Z,12.0
2017-11-01T08:50:49.456Z,12.1
2017-11-01T08:51:50.856Z,12.1
2017-11-01T08:52:52.260Z,12.1
2017-11-01T08:53:53.660Z,12.0
2017-11-01T08:54:55.061Z,12.2
2017-11-01T08:55:56.464Z,12.2
2017-11-01T08:56:57.870Z,12.3
2017-11-01T08:57:59.273Z,12.4
2017-11-01T08:59:00.671Z,12.5
2017-11-01T09:00:02.072Z,12.6
2017-11-01T09:01:03.479Z,12.7
2017-11-01T09:02:04.871Z,12.7
2017-11-01T09:03:06.279Z,12.8
2017-11-01T09:04:07.682Z,12.8
2017-11-01T09:05:09.085Z,12.9
2017-11-01T09:06:10.486Z,12.8
2017-11-01T09:07:11.887Z,12.8
2017-11-01T09:08:13.288Z,12.8
2017-11-01T09:09:14.690Z,12.9
2017-11-01T09:10:16.100Z,13.0
2017-11-01T09:11:17.507Z,13.1
2017-11-01T09:12:18.909Z,13.2
2017-11-01T09:13:20.310Z,13.2
2017-11-01T09:14:21.713Z,13.3
2017-11-01T09:15:23.114Z,13.3
2017-11-01T09:16:24.515Z,13.2
2017-11-01T09:17:25.915Z,13.3
2017-11-01T09:18:27.319Z,13.2
2017-11-01T09:19:28.722Z,13.2
2017-11-01T09:20:30.216Z,13.2
2017-11-01T09:21:31.612Z,13.3
2017-11-01T09:22:33.015Z,13.3
2017-11-01T09:23:34.417Z,13.4
2017-11-01T09:24:35.818Z,13.4
2017-11-01T09:25:37.222Z,13.4
2017-11-01T09:26:38.625Z,13.5
2017-11-01T09:27:40.037Z,13.5
2017-11-01T09:28:41.429Z,13.6
2017-11-01T09:29:42.830Z,13.8
2017-11-01T09:30:44.234Z,13.8
2017-11-01T09:31:45.637Z,13.8
2017-11-01T09:32:47.039Z,13.9
2017-11-01T09:33:48.445Z,13.9
2017-11-01T09:34:49.845Z,14.0
2017-11-01T09:35:51.249Z,14.1
2017-11-01T09:36:52.654Z,14.3
2017-11-01T09:37:54.056Z,14.4
2017-11-01T09:38:55.459Z,14.5
2017-11-01T09:39:56.864Z,14.5
2017-11-01T09:40:58.269Z,14.7
2017-11-01T09:41:59.670Z,14.7
2017-11-01T09:43:01.074Z,14.8
2017-11-01T09:44:02.484Z,14.9
2017-11-01T09:45:03.906Z,14.9
2017-11-01T09:46:05.307Z,14.8
2017-11-01T09:47:06.713Z,14.9
2017-11-01T09:48:08.120Z,14.8
2017-11-01T09:49:09.525Z,15.0
2017-11-01T09:50:10.934Z,15.1
2017-11-01T09:51:12.339Z,15.2
2017-11-01T09:52:13.743Z,15.4
2017-11-01T09:53:15.152Z,15.6
2017-11-01T09:54:16.561Z,15.8
2017-11-01T09:55:17.968Z,15.9
2017-11-01T09:56:19.375Z,16.1
2017-11-01T09:57:20.784Z,16.1
2017-11-01T09:58:22.189Z,16.0
2017-11-01T09:59:23.601Z,16.3
2017-11-01T10:00:25.011Z,16.6
2017-11-01T10:01:26.422Z,17.0
2017-11-01T10:02:27.833Z,17.4
2017-11-01T10:03:29.238Z,17.8
2017-11-01T10:04:30.644Z,18.2
2017-11-01T10:05:32.055Z,18.6
2017-11-01T10:06:33.465Z,18.7
2017-11-01T10:07:34.879Z,19.0
2017-11-01T10:08:36.293Z,19.1
2017-11-01T10:09:37.706Z,19.4
2017-11-01T10:10:39.113Z,19.9
2017-11-01T10:11:40.532Z,19.9
2017-11-01T10:12:41.943Z,20.1
2017-11-01T10:13:43.352Z,19.8
2017-11-01T10:14:44.764Z,19.6
2017-11-01T10:15:46.171Z,20.0
2017-11-01T10:16:47.580Z,20.4
2017-11-01T10:17:48.985Z,20.4
2017-11-01T10:18:50.396Z,20.5
2017-11-01T10:19:51.813Z,20.7
2017-11-01T10:20:53.213Z,20.7
2017-11-01T10:21:54.640Z,20.9
2017-11-01T10:22:56.052Z,21.1
2017-11-01T10:23:57.460Z,21.1
2017-11-01T10:24:58.868Z,20.8
2017-11-01T10:26:00.278Z,20.9
2017-11-01T10:27:01.689Z,20.4
2017-11-01T10:28:03.096Z,20.6
2017-11-01T10:29:04.504Z,20.7
2017-11-01T10:30:05.916Z,20.8
2017-11-01T10:31:07.329Z,21.0
2017-11-01T10:32:08.743Z,21.3
2017-11-01T10:33:10.153Z,21.4
2017-11-01T10:34:11.573Z,21.0
2017-11-01T10:35:12.987Z,21.1
2017-11-01T10:36:14.400Z,20.9
2017-11-01T10:37:15.808Z,20.9
2017-11-01T10:38:17.229Z,21.2
2017-11-01T10:39:18.636Z,21.9
2017-11-01T10:40:20.051Z,22.5
2017-11-01T10:41:21.457Z,22.8
2017-11-01T10:42:22.871Z,23.1
2017-11-01T10:43:24.378Z,23.8
2017-11-01T10:44:25.791Z,24.2
2017-11-01T10:45:27.204Z,24.3
2017-11-01T10:46:28.618Z,24.4
2017-11-01T10:47:30.029Z,24.3
2017-11-01T10:48:31.443Z,23.9
2017-11-01T10:49:32.854Z,23.8
2017-11-01T10:50:34.280Z,23.9
2017-11-01T10:51:35.678Z,23.4
2017-11-01T10:52:37.090Z,23.7
2017-11-01T10:53:38.500Z,23.9
2017-11-01T10:54:39.912Z,23.8
2017-11-01T10:55:41.319Z,23.6
2017-11-01T10:56:42.733Z,23.7
2017-11-01T10:57:44.144Z,23.8
2017-11-01T10:58:45.557Z,24.2
2017-11-01T10:59:46.972Z,24.1
2017-11-01T11:00:48.382Z,24.1
2017-11-01T11:01:49.791Z,23.7
2017-11-01T11:02:51.203Z,23.3
2017-11-01T11:03:52.612Z,23.0
2017-11-01T11:04:54.028Z,22.7
2017-11-01T11:05:55.436Z,22.6
2017-11-01T11:06:56.955Z,22.2
2017-11-01T11:07:58.370Z,21.6
2017-11-01T11:08:59.779Z,21.4
2017-11-01T11:10:01.188Z,21.0
2017-11-01T11:11:02.596Z,20.8
2017-11-01T11:12:04.007Z,20.8
2017-11-01T11:13:05.421Z,20.9
2017-11-01T11:14:06.832Z,20.9
2017-11-01T11:15:08.244Z,20.9
2017-11-01T11:16:09.651Z,20.9
2017-11-01T11:17:11.086Z,20.5
2017-11-01T11:18:12.503Z,20.4
2017-11-01T11:19:13.923Z,20.3
2017-11-01T11:20:15.461Z,20.3
2017-11-01T11:21:16.867Z,20.4
2017-11-01T11:22:18.312Z,20.3
2017-11-01T11:23:19.719Z,20.2
2017-11-01T11:24:21.126Z,20.1
2017-11-01T11:25:22.531Z,20.0
2017-11-01T11:26:23.942Z,20.0
2017-11-01T11:27:25.351Z,20.0
2017-11-01T11:28:26.758Z,20.1
2017-11-01T11:29:28.165Z,20.2
2017-11-01T11:30:29.574Z,20.2
2017-11-01T11:31:30.984Z,20.3
2017-11-01T11:32:32.392Z,20.5
2017-11-01T11:33:33.804Z,21.1
2017-11-01T11:34:35.217Z,21.8
2017-11-01T11:35:36.623Z,22.6
2017-11-01T11:36:38.034Z,23.0
2017-11-01T11:37:39.445Z,23.6
2017-11-01T11:38:40.852Z,23.7
2017-11-01T11:39:42.261Z,23.2
2017-11-01T11:40:43.670Z,22.8
2017-11-01T11:41:45.085Z,22.7
2017-11-01T11:42:46.494Z,22.1
2017-11-01T11:43:47.902Z,21.9
2017-11-01T11:44:49.311Z,21.9
2017-11-01T11:45:50.721Z,21.7
2017-11-01T11:46:52.130Z,21.8
2017-11-01T11:47:53.539Z,21.9
2017-11-01T11:48:54.989Z,22.0
2017-11-01T11:49:56.394Z,22.1
2017-11-01T11:50:57.799Z,22.2
2017-11-01T11:51:59.206Z,22.5
2017-11-01T11:53:00.611Z,23.2
2017-11-01T11:54:02.023Z,23.7
2017-11-01T11:55:03.443Z,23.5
2017-11-01T11:56:04.854Z,23.8
2017-11-01T11:57:06.265Z,23.9
2017-11-01T11:58:07.669Z,23.9
2017-11-01T11:59:09.074Z,23.7
2017-11-01T12:00:10.481Z,23.4
2017-11-01T12:01:11.889Z,23.1
2017-11-01T12:02:13.298Z,22.8
2017-11-01T12:03:14.710Z,22.9
2017-11-01T12:04:16.120Z,22.9
2017-11-01T12:05:17.527Z,22.8
2017-11-01T12:06:18.937Z,22.7
2017-11-01T12:07:20.343Z,22.6
2017-11-01T12:08:21.750Z,22.6
2017-11-01T12:09:23.166Z,22.5
2017-11-01T12:10:24.566Z,22.4
2017-11-01T12:11:25.975Z,22.4
2017-11-01T12:12:27.388Z,22.4
2017-11-01T12:13:28.792Z,22.4
2017-11-01T12:14:30.202Z,22.4
2017-11-01T12:15:31.613Z,22.3
2017-11-01T12:16:33.024Z,22.2
2017-11-01T12:17:34.430Z,22.2
2017-11-01T12:18:35.837Z,22.2
2017-11-01T12:19:37.242Z,22.3
2017-11-01T12:20:38.648Z,22.4
2017-11-01T12:21:40.054Z,22.3
2017-11-01T12:22:41.462Z,22.3
2017-11-01T12:23:42.874Z,22.3
2017-11-01T12:24:44.284Z,22.2
2017-11-01T12:25:45.695Z,22.0
2017-11-01T12:26:47.103Z,22.1
2017-11-01T12:27:48.509Z,22.0
2017-11-01T12:28:49.915Z,22.1
2017-11-01T12:29:51.325Z,22.2
2017-11-01T12:30:52.730Z,22.2
2017-11-01T12:31:54.141Z,22.2
2017-11-01T12:32:55.549Z,22.1
2017-11-01T12:33:56.965Z,22.2
2017-11-01T12:34:58.369Z,22.2
2017-11-01T12:35:59.771Z,22.1
2017-11-01T12:37:01.182Z,22.1
2017-11-01T12:38:02.587Z,22.2
2017-11-01T12:39:03.994Z,22.2
2017-11-01T12:40:05.403Z,22.1
2017-11-01T12:41:06.807Z,22.1
2017-11-01T12:42:08.216Z,22.2
2017-11-01T12:43:09.624Z,22.1
2017-11-01T12:44:10.991Z,22.2
2017-11-01T12:45:12.401Z,22.3
2017-11-01T12:46:13.831Z,22.2
2017-11-01T12:47:15.262Z,22.1
2017-11-01T12:48:16.644Z,22.3
2017-11-01T12:49:18.051Z,22.2
2017-11-01T12:50:19.460Z,22.4
2017-11-01T12:51:20.866Z,22.4
2017-11-01T12:52:22.275Z,22.2
2017-11-01T12:53:23.685Z,22.1
2017-11-01T12:54:25.095Z,22.0
2017-11-01T12:55:26.500Z,22.0
2017-11-01T12:56:27.910Z,22.0
2017-11-01T12:57:29.316Z,21.9
2017-11-01T12:58:30.723Z,21.9
2017-11-01T12:59:32.131Z,21.7
2017-11-01T13:00:33.538Z,21.8
2017-11-01T13:01:34.950Z,21.8
2017-11-01T13:02:36.358Z,21.9
2017-11-01T13:03:37.764Z,21.8
2017-11-01T13:04:39.172Z,21.8
2017-11-01T13:05:40.580Z,21.8
2017-11-01T13:06:41.995Z,21.8
2017-11-01T13:07:43.403Z,21.7
2017-11-01T13:08:44.813Z,21.6
2017-11-01T13:09:46.217Z,21.4
2017-11-01T13:10:47.619Z,21.4
2017-11-01T13:11:49.030Z,21.4
2017-11-01T13:12:50.438Z,21.4
2017-11-01T13:13:51.842Z,21.4
2017-11-01T13:14:53.254Z,21.4
2017-11-01T13:15:54.659Z,21.5
2017-11-01T13:16:56.073Z,21.6
2017-11-01T13:17:57.483Z,21.6
2017-11-01T13:18:58.891Z,21.7
2017-11-01T13:20:00.299Z,21.8
2017-11-01T13:21:01.705Z,21.9
2017-11-01T13:22:03.111Z,21.9
2017-11-01T13:23:04.521Z,21.9
2017-11-01T13:24:05.928Z,21.9
2017-11-01T13:25:07.333Z,21.9
2017-11-01T13:26:08.739Z,22.0
2017-11-01T13:27:10.152Z,21.9
2017-11-01T13:28:11.552Z,21.8
2017-11-01T13:29:12.958Z,21.7
2017-11-01T13:30:14.417Z,21.7
2017-11-01T13:31:15.826Z,21.7
2017-11-01T13:32:17.229Z,21.6
2017-11-01T13:33:18.637Z,21.5
2017-11-01T13:34:20.045Z,21.6
2017-11-01T13:35:21.457Z,21.4
2017-11-01T13:36:22.867Z,21.4
2017-11-01T13:37:24.275Z,21.5